MST,Max TemperatureF,Mean TemperatureF,Min TemperatureF,Max Dew PointF,MeanDew PointF,Min DewpointF,Max Humidity, Mean Humidity, Min Humidity, Max Sea Level PressureIn, Mean Sea Level PressureIn, Min Sea Level PressureIn, Max VisibilityMiles, Mean VisibilityMiles, Min VisibilityMiles, Max Wind SpeedMPH, Mean Wind SpeedMPH, Max Gust SpeedMPH,PrecipitationIn, CloudCover, Events, WindDirDegrees
2012-12-1,57,50,44,46,41,39,93,73,51,29.87,29.81,29.65,10,10,5,15,10,24,0.02,5,,137
2012-12-2,64,50,35,48,34,25,88,53,34,30.06,29.65,29.37,10,10,5,29,14,44,0.00,5,,222
2012-12-3,51,42,32,30,27,27,87,63,38,30.21,30.16,30.08,10,10,10,12,5,17,0.00,1,,145
2012-12-4,50,46,41,50,41,28,100,80,50,30.12,30.07,30.01,10,10,6,20,14,29,0.09,6,,140
2012-12-5,57,49,41,54,44,36,100,81,47,30.11,30.04,29.98,10,9,4,15,8,21,0.14,5,,30
2012-12-6,44,38,30,36,32,28,100,79,53,30.15,30.10,30.06,10,10,10,8,2,,0.00,4,,329
2012-12-7,44,34,24,32,27,23,100,75,43,30.16,30.09,29.98,10,10,7,15,3,22,0.00,3,,142
2012-12-8,42,37,32,36,27,21,100,78,53,30.23,30.12,29.98,10,9,0,16,9,23,0.03,5,,333
2012-12-9,35,32,28,32,27,19,100,82,52,30.44,30.35,30.23,10,10,3,9,4,,0.00,6,,302
2012-12-10,41,36,30,34,32,28,100,90,70,30.32,30.24,30.16,10,10,3,9,5,,0.00,5,,321
2012-12-11,48,37,26,37,32,27,100,91,54,30.16,29.85,29.59,10,9,5,15,4,20,0.00,2,,157
2012-12-12,41,37,33,39,37,34,100,95,76,29.88,29.76,29.62,10,9,3,12,3,17,0.05,7,,20
2012-12-13,35,32,30,36,31,28,100,93,81,29.97,29.90,29.83,10,10,10,9,6,,0.00,8,,301
2012-12-14,39,36,32,36,32,30,100,91,70,29.89,29.79,29.74,10,10,9,8,2,,0.00,8,,9
2012-12-15,39,36,32,36,30,25,100,83,56,29.93,29.87,29.79,10,10,1,9,3,,0.00,7,,134
2012-12-16,39,36,32,37,33,30,100,96,75,29.92,29.80,29.55,10,8,2,22,8,30,0.01,6,,143
2012-12-17,48,40,32,37,27,16,87,58,37,29.94,29.70,29.50,10,10,10,26,14,40,0.00,3,,267
2012-12-18,33,25,17,19,17,14,100,71,48,30.05,29.97,29.92,10,10,7,12,4,21,0.00,0,,16
2012-12-19,35,24,14,23,15,10,100,68,41,30.25,30.19,30.05,10,10,8,20,6,31,0.00,2,,130
2012-12-20,41,36,32,14,8,3,48,33,21,30.20,30.07,29.99,10,10,8,33,21,50,0.00,4,,159
2012-12-21,39,36,32,16,12,9,44,39,33,30.01,29.95,29.87,10,10,10,22,15,31,0.00,7,,176
2012-12-22,48,38,28,37,20,10,100,54,22,29.93,29.81,29.72,10,10,8,23,13,34,0.00,4,,163
2012-12-23,37,32,28,37,32,27,100,92,70,30.01,29.87,29.71,10,9,3,23,9,36,0.07,5,,137
2012-12-24,39,32,24,36,26,21,100,73,49,30.21,30.03,29.77,10,10,9,16,7,24,0.00,5,,306
2012-12-25,35,27,19,30,23,18,100,83,48,30.22,30.06,29.87,10,8,2,22,9,31,0.00,2,,145
2012-12-26,32,30,28,32,29,28,100,100,93,29.91,29.82,29.77,10,6,1,13,7,18,0.00,6,,105
2012-12-27,33,28,23,28,28,23,100,96,80,30.18,30.05,29.91,10,7,0,10,5,,0.00,6,,339
2012-12-28,32,24,17,28,23,18,100,95,75,30.25,30.22,30.18,10,9,5,7,2,,0.00,2,,159
2012-12-29,26,20,15,23,19,14,100,88,69,30.24,30.17,30.09,10,9,2,8,5,,0.00,5,,170
2012-12-30,24,17,10,23,20,10,100,95,80,30.30,30.23,30.11,10,7,0,6,3,,0.00,5,,317
2012-12-31,24,16,6,23,15,7,100,94,69,30.42,30.32,30.27,10,8,0,10,2,,0.00,4,,346